Time;durP1;ratioP1;P1;durP2;ratioP2;P2;SDS_P1;SDS_P2;PMS_P1;PMS_P2;Temp;Humidity;BMP_temperature;BMP_pressure;BME280_temperature;BME280_humidity;BME280_pressure;Samples;Min_cycle;Max_cycle;Signal;HPM_P1;HPM_P2
2021/12/17 00:01:10;;;;;;;1.00;0.73;;;;;;;7.09;61.00;98727.19;3400455;29;20082;-71
2021/12/17 00:06:47;;;;;;;1.17;1.00;;;;;;;7.09;60.94;98739.63;3402371;29;20131;-71
2021/12/17 00:08:28;;;;;;;0.68;0.68;;;;;;;7.09;60.93;98744.94;3403146;29;20042;-71
2021/12/17 00:10:18;;;;;;;0.95;0.50;;;;;;;7.11;61.15;98743.72;3402427;29;20040;-71
2021/12/17 00:11:58;;;;;;;0.60;0.60;;;;;;;7.11;61.07;98742.91;3399035;29;20046;-72
2021/12/17 00:13:42;;;;;;;1.05;0.70;;;;;;;7.08;60.96;98745.97;3403687;29;20071;-71
2021/12/17 00:15:23;;;;;;;0.98;0.70;;;;;;;7.10;60.99;98749.22;3403146;29;20035;-71
2021/12/17 00:17:08;;;;;;;0.60;0.60;;;;;;;7.07;60.98;98742.47;3403577;29;20035;-72
2021/12/17 00:48:37;;;;;;;1.90;1.35;;;;;;;7.05;61.00;98786.06;3400854;29;20039;-71
2021/12/17 00:52:11;;;;;;;1.92;1.20;;;;;;;7.02;60.84;98786.47;3402564;29;20044;-70
2021/12/17 00:53:52;;;;;;;1.15;1.15;;;;;;;7.04;60.96;98801.16;3402944;29;20423;-70
2021/12/17 00:55:33;;;;;;;1.42;1.10;;;;;;;7.05;61.18;98796.66;3401580;29;20072;-72
2021/12/17 00:57:14;;;;;;;1.65;1.13;;;;;;;7.05;61.02;98799.31;3402111;29;20518;-71
2021/12/17 00:58:55;;;;;;;1.33;1.25;;;;;;;7.05;60.97;98796.66;3395549;29;20040;-70
2021/12/17 01:00:36;;;;;;;3.05;1.45;;;;;;;7.05;60.91;98794.84;3385972;29;20047;-69
2021/12/17 01:02:23;;;;;;;1.52;1.30;;;;;;;7.05;61.10;98792.22;3388044;29;20056;-69
2021/12/17 01:04:04;;;;;;;1.35;1.25;;;;;;;7.04;61.07;98790.56;3390067;29;20054;-70
2021/12/17 01:05:44;;;;;;;1.55;1.45;;;;;;;7.06;60.99;98795.66;3387177;29;20047;-70
2021/12/17 01:07:29;;;;;;;2.03;1.55;;;;;;;7.04;60.91;98795.03;3398870;29;20073;-70
2021/12/17 01:09:16;;;;;;;1.75;1.65;;;;;;;7.03;60.94;98788.94;3394825;29;20043;-71
2021/12/17 01:10:58;;;;;;;1.83;1.60;;;;;;;7.04;60.84;98787.09;3390321;29;20059;-70
2021/12/17 01:12:54;;;;;;;2.08;1.92;;;;;;;7.03;60.86;98793.41;3390414;29;20114;-70
2021/12/17 01:14:52;;;;;;;2.47;1.88;;;;;;;7.00;61.05;98794.63;3389065;29;20047;-71
2021/12/17 01:16:54;;;;;;;1.85;1.70;;;;;;;6.99;60.73;98799.06;3390151;29;20202;-71
2021/12/17 01:19:15;;;;;;;2.58;2.28;;;;;;;6.99;60.89;98796.44;3395618;29;20087;-70
2021/12/17 01:23:02;;;;;;;2.17;1.98;;;;;;;7.01;60.87;98798.09;3385575;29;20039;-71
2021/12/17 01:25:03;;;;;;;2.60;1.42;;;;;;;7.02;60.79;98807.66;3390403;29;20128;-69
2021/12/17 01:36:18;;;;;;;2.50;1.58;;;;;;;7.04;60.79;98797.69;3406457;29;20070;-74
2021/12/17 01:43:18;;;;;;;1.83;1.73;;;;;;;7.05;60.91;98812.56;3401509;29;20040;-72
2021/12/17 01:44:59;;;;;;;2.40;2.20;;;;;;;7.05;60.91;98812.56;3414678;29;20035;-74
2021/12/17 01:46:42;;;;;;;2.03;1.92;;;;;;;7.05;60.83;98817.84;3404637;29;20135;-72
2021/12/17 01:48:31;;;;;;;2.10;2.00;;;;;;;7.05;60.94;98817.84;3397314;29;20043;-70
2021/12/17 02:00:25;;;;;;;2.72;2.53;;;;;;;7.01;60.99;98822.72;3387446;29;20496;-70
2021/12/17 02:02:08;;;;;;;2.05;1.92;;;;;;;6.99;60.95;98819.44;3398422;29;20373;-70
2021/12/17 02:03:49;;;;;;;2.45;2.25;;;;;;;6.95;60.95;98816.38;3398614;29;20098;-70
2021/12/17 02:05:30;;;;;;;2.83;2.60;;;;;;;6.95;60.93;98819.03;3401760;29;20043;-72
2021/12/17 02:07:11;;;;;;;3.75;2.80;;;;;;;6.94;61.04;98821.88;3400127;29;20130;-70
2021/12/17 02:08:54;;;;;;;2.40;2.17;;;;;;;6.92;60.91;98824.72;3407278;28;20047;-70
2021/12/17 02:32:08;;;;;;;2.25;1.83;;;;;;;6.87;60.80;98816.53;3400671;29;20047;-71
2021/12/17 02:33:49;;;;;;;2.40;2.17;;;;;;;6.86;60.76;98814.88;3401780;29;20047;-72
2021/12/17 02:35:42;;;;;;;2.45;2.25;;;;;;;6.85;60.84;98823.03;3400934;29;20530;-70
2021/12/17 02:37:26;;;;;;;2.30;2.10;;;;;;;6.85;60.92;98823.03;3398303;29;20090;-71
2021/12/17 02:45:32;;;;;;;2.97;2.33;;;;;;;6.84;60.84;98827.50;3400728;29;20044;-72
2021/12/17 02:47:13;;;;;;;2.67;2.42;;;;;;;6.83;60.74;98828.50;3392272;29;20055;-73
2021/12/17 02:48:55;;;;;;;3.78;2.75;;;;;;;6.83;60.84;98825.84;3398183;29;20050;-72
2021/12/17 02:50:43;;;;;;;2.50;2.30;;;;;;;6.85;60.88;98828.31;3385218;29;20523;-71
2021/12/17 02:52:30;;;;;;;2.65;2.10;;;;;;;6.83;60.73;98833.00;3398934;29;20044;-72
2021/12/17 02:54:11;;;;;;;2.58;2.22;;;;;;;6.82;60.90;98834.81;3398334;29;20044;-71
2021/12/17 02:55:55;;;;;;;2.83;2.10;;;;;;;6.82;60.88;98831.38;3398313;29;20471;-71
2021/12/17 02:57:36;;;;;;;2.50;2.30;;;;;;;6.82;60.68;98834.00;3407094;29;20039;-71
2021/12/17 02:59:16;;;;;;;3.92;3.00;;;;;;;6.83;60.67;98833.81;3403477;29;20051;-72
2021/12/17 03:00:58;;;;;;;2.72;1.67;;;;;;;6.82;60.68;98834.81;3401902;29;20444;-72
2021/12/17 03:02:40;;;;;;;2.80;1.98;;;;;;;6.82;60.78;98828.72;3401807;29;20040;-71
2021/12/17 03:04:21;;;;;;;2.70;2.17;;;;;;;6.82;60.76;98823.41;3401117;29;20452;-71
2021/12/17 03:06:02;;;;;;;3.90;2.33;;;;;;;6.85;60.79;98834.44;3401868;29;20130;-72
2021/12/17 03:07:46;;;;;;;4.00;2.20;;;;;;;6.84;60.64;98827.50;3396212;29;20043;-73
2021/12/17 03:11:27;;;;;;;1.88;1.77;;;;;;;6.84;60.56;98827.50;3401581;29;20138;-69
2021/12/17 03:13:10;;;;;;;1.88;1.77;;;;;;;6.84;60.48;98827.50;3401530;29;20047;-70
2021/12/17 03:15:37;;;;;;;1.63;1.52;;;;;;;6.86;60.49;98835.25;3396444;29;20047;-70
2021/12/17 03:17:04;;;;;;;2.13;1.75;;;;;;;6.87;60.45;98828.97;3386452;29;20430;-70
2021/12/17 03:24:29;;;;;;;1.70;1.60;;;;;;;6.84;60.39;98827.50;3402642;29;20056;-70
2021/12/17 03:26:14;;;;;;;2.55;1.77;;;;;;;6.85;60.37;98831.78;3396842;29;20060;-71
2021/12/17 03:27:55;;;;;;;1.95;1.70;;;;;;;6.85;60.48;98834.44;3401136;29;20067;-71
2021/12/17 03:29:36;;;;;;;1.60;1.50;;;;;;;6.83;60.28;98836.44;3399420;29;20042;-71
2021/12/17 03:31:20;;;;;;;1.67;1.50;;;;;;;6.82;60.29;98841.97;3400143;29;20175;-71
2021/12/17 03:33:01;;;;;;;1.45;1.35;;;;;;;6.82;60.25;98840.13;3400544;29;20238;-71
2021/12/17 03:34:42;;;;;;;1.50;1.38;;;;;;;6.80;60.33;98828.91;3387035;29;20419;-71
2021/12/17 03:36:22;;;;;;;1.67;1.30;;;;;;;6.81;60.35;98838.47;3392833;29;20035;-70
2021/12/17 03:38:04;;;;;;;1.63;1.30;;;;;;;6.80;60.38;98836.84;3402558;29;20071;-70
2021/12/17 03:39:45;;;;;;;1.40;1.30;;;;;;;6.80;60.20;98836.84;3412779;29;20039;-71
2021/12/17 03:41:35;;;;;;;1.40;1.30;;;;;;;6.79;60.37;98845.81;3402596;29;20043;-72
2021/12/17 03:43:23;;;;;;;1.67;1.20;;;;;;;6.78;60.14;98839.66;3400996;29;20134;-71
2021/12/17 03:45:05;;;;;;;3.17;1.10;;;;;;;6.76;60.08;98836.41;3401098;29;20414;-73
2021/12/17 03:46:51;;;;;;;2.08;1.98;;;;;;;6.76;60.04;98841.72;3396601;29;20095;-71
2021/12/17 03:48:35;;;;;;;1.52;1.40;;;;;;;6.76;60.16;98840.88;3395135;29;20422;-71
2021/12/17 03:50:17;;;;;;;1.40;1.13;;;;;;;6.76;60.06;98835.56;3402023;29;20043;-70
2021/12/17 03:52:05;;;;;;;1.30;1.17;;;;;;;6.77;60.28;98834.59;3413326;29;20110;-70
2021/12/17 03:53:53;;;;;;;1.25;1.15;;;;;;;6.77;60.21;98832.75;3395702;29;20407;-72
2021/12/17 03:55:34;;;;;;;3.00;1.10;;;;;;;6.75;59.88;98833.94;3399393;29;20050;-69
2021/12/17 03:57:19;;;;;;;1.85;1.75;;;;;;;6.74;59.99;98840.25;3396092;29;20142;-70
2021/12/17 03:59:10;;;;;;;1.40;1.30;;;;;;;6.71;60.03;98835.31;3403199;29;20083;-70
2021/12/17 04:00:51;;;;;;;3.63;1.27;;;;;;;6.73;60.05;98833.31;3402139;29;20470;-70
2021/12/17 04:02:32;;;;;;;2.08;1.33;;;;;;;6.72;59.99;98829.84;3399665;29;20055;-70
2021/12/17 04:04:13;;;;;;;3.63;1.42;;;;;;;6.70;60.14;98831.88;3412583;29;20039;-74
2021/12/17 04:05:54;;;;;;;1.60;1.00;;;;;;;6.72;60.06;98834.34;3399868;29;20087;-69
2021/12/17 04:07:55;;;;;;;0.90;0.90;;;;;;;6.74;60.06;98834.97;3399801;29;20307;-71
2021/12/17 04:09:54;;;;;;;0.90;0.80;;;;;;;6.74;59.88;98830.47;3391076;29;20051;-71
2021/12/17 04:11:36;;;;;;;3.05;1.27;;;;;;;6.73;59.94;98828.81;3402307;29;20040;-70
2021/12/17 04:13:28;;;;;;;1.48;1.10;;;;;;;6.72;59.81;98834.34;3400780;29;20070;-71
2021/12/17 04:15:16;;;;;;;1.30;1.20;;;;;;;6.71;59.90;98832.69;3400378;29;20174;-71
2021/12/17 04:17:02;;;;;;;;;;;;;;;6.80;59.68;98834.19;3392905;29;20040;-70
2021/12/17 04:18:43;;;;;;;1.00;0.90;;;;;;;6.73;59.72;98835.97;3389999;29;19923;-70
2021/12/17 04:20:26;;;;;;;2.03;1.20;;;;;;;6.72;59.69;98839.63;3389132;29;20036;-72
2021/12/17 04:22:08;;;;;;;1.38;1.00;;;;;;;6.71;59.84;98838.81;3390748;29;20047;-71
2021/12/17 04:23:50;;;;;;;1.67;1.50;;;;;;;6.72;59.75;98845.75;3402226;29;20039;-72
2021/12/17 04:25:31;;;;;;;1.48;1.38;;;;;;;6.73;59.92;98847.38;3402636;29;20102;-72
2021/12/17 04:27:12;;;;;;;2.13;1.02;;;;;;;6.74;59.79;98856.16;3398908;29;20066;-70
2021/12/17 04:28:53;;;;;;;1.10;1.00;;;;;;;6.73;60.01;98846.56;3412630;28;20035;-71
2021/12/17 04:30:38;;;;;;;1.88;1.17;;;;;;;6.75;59.95;98857.78;3397430;29;20051;-72
2021/12/17 04:32:19;;;;;;;2.70;1.23;;;;;;;6.77;59.90;98858.41;3399040;29;20031;-71
2021/12/17 04:34:00;;;;;;;1.23;1.13;;;;;;;6.75;59.96;98855.13;3412833;29;20055;-70
2021/12/17 04:35:45;;;;;;;1.90;1.30;;;;;;;6.77;59.94;98858.41;3402194;29;20054;-71
2021/12/17 04:37:26;;;;;;;1.33;1.23;;;;;;;6.74;59.72;98864.91;3399181;29;20050;-72
2021/12/17 04:39:12;;;;;;;1.08;0.98;;;;;;;6.74;60.00;98864.09;3399598;29;20071;-71
2021/12/17 04:40:53;;;;;;;4.47;1.88;;;;;;;6.72;60.05;98864.28;3397615;29;20627;-73
2021/12/17 04:42:51;;;;;;;2.28;1.05;;;;;;;6.75;59.95;98873.66;3398383;29;20415;-71
2021/12/17 04:44:37;;;;;;;1.58;1.20;;;;;;;6.75;59.98;98877.13;3401356;29;20048;-73
2021/12/17 04:58:12;;;;;;;0.98;0.70;;;;;;;6.74;59.77;98885.28;3401195;29;20474;-72
2021/12/17 04:59:56;;;;;;;1.45;1.13;;;;;;;6.72;59.98;98890.75;3398622;29;20118;-71
2021/12/17 05:01:36;;;;;;;1.05;0.85;;;;;;;6.70;59.82;98889.31;3397652;29;20039;-72
2021/12/17 05:03:19;;;;;;;1.63;1.23;;;;;;;6.70;59.95;98884.81;3402256;29;20044;-72
2021/12/17 05:05:06;;;;;;;1.13;1.02;;;;;;;6.68;59.81;98888.66;3414498;29;20047;-71
2021/12/17 05:06:50;;;;;;;0.90;0.90;;;;;;;6.69;59.95;98898.28;3404186;29;20495;-69
2021/12/17 05:08:32;;;;;;;5.57;1.48;;;;;;;6.67;59.80;98895.78;3414689;29;20125;-71
2021/12/17 05:10:31;;;;;;;0.70;0.70;;;;;;;6.67;59.87;98901.09;3395719;29;20545;-70
2021/12/17 05:20:41;;;;;;;1.42;0.85;;;;;;;6.62;59.52;98907.97;3400951;29;20051;-70
2021/12/17 05:22:13;;;;;;;3.60;1.67;;;;;;;6.62;59.66;98907.97;3393654;29;20044;-69
2021/12/17 05:23:55;;;;;;;1.42;1.05;;;;;;;6.59;59.76;98909.16;3388261;29;20036;-70
2021/12/17 05:25:36;;;;;;;11.35;1.20;;;;;;;6.58;59.81;98910.16;3399061;29;20098;-70
2021/12/17 05:27:18;;;;;;;0.88;0.82;;;;;;;6.58;59.81;98917.28;3401182;29;20059;-71
2021/12/17 05:29:06;;;;;;;1.52;0.75;;;;;;;6.55;59.67;98906.06;3412549;28;20082;-70
2021/12/17 05:30:55;;;;;;;0.68;0.68;;;;;;;6.55;59.67;98908.69;3393174;29;20054;-74
2021/12/17 05:32:35;;;;;;;0.80;0.80;;;;;;;6.54;59.83;98900.97;3395295;29;20040;-73
2021/12/17 05:34:17;;;;;;;2.00;0.95;;;;;;;6.55;59.64;98914.00;3398062;29;20138;-73
2021/12/17 05:36:09;;;;;;;2.88;0.90;;;;;;;6.58;59.71;98912.78;3399840;29;20503;-73
2021/12/17 05:37:54;;;;;;;2.78;0.90;;;;;;;6.58;59.59;98911.97;3399010;29;20450;-73
2021/12/17 05:39:35;;;;;;;0.90;0.88;;;;;;;6.57;59.45;98905.06;3395282;29;20519;-72
2021/12/17 05:41:17;;;;;;;1.35;0.90;;;;;;;6.58;59.74;98914.63;3395188;29;20493;-72
2021/12/17 05:43:16;;;;;;;2.60;0.90;;;;;;;6.55;59.67;98921.94;3398105;29;20131;-71
2021/12/17 05:45:06;;;;;;;2.97;0.90;;;;;;;6.56;59.65;98928.06;3398706;29;20051;-71
2021/12/17 05:46:50;;;;;;;0.82;0.82;;;;;;;6.55;59.46;98924.59;3385842;29;20039;-71
2021/12/17 05:48:32;;;;;;;2.30;0.90;;;;;;;6.53;59.67;98926.63;3410698;29;20102;-71
2021/12/17 05:50:14;;;;;;;2.15;1.00;;;;;;;6.52;59.66;98932.91;3400527;29;20126;-70
2021/12/17 05:51:54;;;;;;;1.08;0.70;;;;;;;6.50;59.56;98924.31;3405636;29;20522;-72
2021/12/17 05:53:36;;;;;;;1.23;0.90;;;;;;;6.49;59.56;98928.00;3400256;29;20046;-71
2021/12/17 05:55:17;;;;;;;1.95;1.00;;;;;;;6.49;59.76;98935.94;3398056;29;20044;-71
2021/12/17 05:56:58;;;;;;;2.40;0.80;;;;;;;6.48;59.74;98931.66;3398520;29;20035;-71
2021/12/17 05:58:41;;;;;;;0.88;0.82;;;;;;;6.49;59.56;98935.94;3374630;29;20059;-73
2021/12/17 06:00:23;;;;;;;2.25;0.90;;;;;;;6.51;59.48;98939.22;3395940;29;20043;-73
2021/12/17 06:02:09;;;;;;;3.13;1.25;;;;;;;6.50;59.56;98937.56;3395959;29;20032;-71
2021/12/17 06:03:52;;;;;;;1.25;1.00;;;;;;;6.49;59.40;98941.22;3393666;29;20522;-72
2021/12/17 06:05:33;;;;;;;0.95;0.95;;;;;;;6.47;59.41;98937.13;3396472;29;20131;-73
2021/12/17 06:07:14;;;;;;;2.47;1.15;;;;;;;6.46;59.56;98946.91;3397170;29;20364;-72
2021/12/17 06:09:08;;;;;;;1.45;1.05;;;;;;;6.47;59.52;98948.53;3386044;29;20058;-72
2021/12/17 06:10:49;;;;;;;2.55;0.90;;;;;;;6.49;59.59;98961.59;3395465;29;20073;-71
2021/12/17 06:12:30;;;;;;;1.08;0.70;;;;;;;6.47;59.49;98959.13;3397968;29;20047;-74
2021/12/17 06:14:11;;;;;;;0.75;0.75;;;;;;;6.50;59.39;98964.03;3398228;29;20062;-73
2021/12/17 06:15:52;;;;;;;0.85;0.82;;;;;;;6.50;59.25;98961.38;3397637;29;20047;-70
2021/12/17 06:17:33;;;;;;;3.25;1.10;;;;;;;6.51;59.36;98964.88;3387990;29;20051;-71
2021/12/17 06:19:17;;;;;;;1.20;1.10;;;;;;;6.49;59.46;98965.03;3400831;29;20131;-70
2021/12/17 06:20:59;;;;;;;2.13;1.00;;;;;;;6.52;59.43;98962.03;3400653;29;20388;-71
2021/12/17 06:22:40;;;;;;;3.28;1.88;;;;;;;6.55;59.27;98966.13;3398564;29;20163;-69
2021/12/17 06:24:23;;;;;;;2.90;1.10;;;;;;;6.56;59.43;98973.06;3412327;29;20537;-71
2021/12/17 06:26:05;;;;;;;2.95;0.80;;;;;;;6.58;59.28;98972.88;3404119;29;20056;-70
2021/12/17 06:27:47;;;;;;;0.90;0.90;;;;;;;6.59;59.43;98990.41;3394307;29;20094;-72
2021/12/17 06:29:27;;;;;;;1.15;0.93;;;;;;;6.56;59.33;98975.72;3400922;29;20067;-69
2021/12/17 06:31:20;;;;;;;0.88;0.88;;;;;;;6.58;59.24;98981.63;3394298;29;20052;-70
2021/12/17 06:33:00;;;;;;;2.10;1.20;;;;;;;6.57;59.38;98981.84;3398611;29;20468;-72
2021/12/17 06:34:45;;;;;;;2.45;1.13;;;;;;;6.57;59.12;98981.84;3398678;29;20099;-70
2021/12/17 06:36:26;;;;;;;0.80;0.80;;;;;;;6.57;59.13;98989.78;3385107;29;20064;-71
2021/12/17 06:38:07;;;;;;;0.95;0.80;;;;;;;6.57;59.23;98989.78;3391277;29;20518;-70
2021/12/17 06:39:51;;;;;;;1.40;0.93;;;;;;;6.57;59.18;98990.59;3397099;29;20054;-71
2021/12/17 06:41:32;;;;;;;0.95;0.80;;;;;;;6.58;59.23;98988.75;3398170;29;20626;-70
2021/12/17 06:43:13;;;;;;;0.82;0.82;;;;;;;6.58;58.79;98980.81;3384633;29;20048;-71
2021/12/17 06:44:58;;;;;;;0.77;0.77;;;;;;;6.59;59.25;98985.13;3395153;29;20068;-70
2021/12/17 06:48:32;;;;;;;0.82;0.80;;;;;;;6.63;59.03;98983.72;3399309;29;20048;-71
2021/12/17 06:59:37;;;;;;;1.98;1.20;;;;;;;6.78;58.61;98987.97;3395945;29;20040;-69
2021/12/17 07:10:57;;;;;;;1.80;1.08;;;;;;;6.92;58.69;98996.91;3391480;29;20051;-70
2021/12/17 07:17:26;;;;;;;1.70;1.25;;;;;;;6.94;58.50;98997.53;3402794;29;20539;-70
2021/12/17 07:34:44;;;;;;;1.52;1.42;;;;;;;7.28;58.48;99013.72;3401690;29;20043;-70
2021/12/17 07:36:39;;;;;;;1.88;1.60;;;;;;;7.28;58.58;99006.63;3389454;29;20095;-71
2021/12/17 07:38:37;;;;;;;2.42;1.58;;;;;;;7.29;58.38;99015.38;3395519;29;20044;-71
2021/12/17 07:40:53;;;;;;;;;;;;;;;7.39;58.25;99032.63;3386908;29;20040;-70
2021/12/17 07:42:37;;;;;;;3.03;1.45;;;;;;;7.30;58.16;99025.78;3388847;29;20378;-70
2021/12/17 07:44:37;;;;;;;1.33;1.23;;;;;;;7.30;58.23;99032.91;3389255;29;20062;-71
2021/12/17 07:46:34;;;;;;;1.77;1.50;;;;;;;7.28;58.29;99037.59;3376600;29;20576;-71
2021/12/17 07:48:16;;;;;;;3.47;1.30;;;;;;;7.26;58.28;99043.09;3381314;29;20048;-70
2021/12/17 07:50:18;;;;;;;2.80;1.58;;;;;;;7.28;58.39;99029.63;3388801;29;20086;-70
2021/12/17 07:52:18;;;;;;;5.30;1.50;;;;;;;7.27;58.38;99050.03;3390099;29;20099;-72
2021/12/17 07:53:58;;;;;;;;;;;;;;;7.36;58.11;99043.59;3389642;29;20048;-69
2021/12/17 07:55:40;;;;;;;1.80;1.70;;;;;;;7.28;58.31;99043.72;3390061;29;20515;-71
2021/12/17 07:57:24;;;;;;;6.20;1.38;;;;;;;7.24;58.13;99045.09;3388082;29;20036;-70
2021/12/17 07:59:10;;;;;;;1.45;1.30;;;;;;;7.22;58.38;99047.13;3388222;29;20107;-71
2021/12/17 08:00:50;;;;;;;2.47;2.03;;;;;;;7.23;58.41;99046.13;3389209;29;20071;-71
2021/12/17 08:02:32;;;;;;;2.05;1.63;;;;;;;7.24;58.46;99055.72;3389203;29;20072;-70
2021/12/17 08:04:35;;;;;;;2.53;1.35;;;;;;;7.26;58.47;99047.59;3389438;29;20052;-72
2021/12/17 08:06:22;;;;;;;2.72;1.80;;;;;;;7.24;58.43;99054.91;3388799;29;20103;-69
2021/12/17 08:08:19;;;;;;;1.92;1.35;;;;;;;7.23;58.20;99051.44;3387598;29;20052;-71
2021/12/17 08:12:10;;;;;;;3.97;2.17;;;;;;;7.19;58.38;99052.81;3376440;29;20051;-70
2021/12/17 08:14:28;;;;;;;2.08;1.40;;;;;;;7.16;58.30;99050.53;3389268;29;20055;-73
2021/12/17 08:16:27;;;;;;;2.70;1.77;;;;;;;7.17;58.20;99052.97;3388982;29;20051;-70
2021/12/17 08:24:48;;;;;;;2.10;1.60;;;;;;;7.13;58.10;99050.91;3362722;29;20041;-71
2021/12/17 08:28:50;;;;;;;3.13;1.70;;;;;;;7.15;58.29;99062.13;3400364;29;20052;-69
2021/12/17 08:30:29;;;;;;;3.92;1.77;;;;;;;7.15;58.08;99043.56;3389394;29;20527;-70
2021/12/17 08:32:23;;;;;;;2.83;2.20;;;;;;;7.18;58.02;99051.19;3377884;29;20052;-71
2021/12/17 08:34:09;;;;;;;1.80;1.70;;;;;;;7.17;58.04;99055.63;3388441;29;20488;-73
2021/12/17 08:35:51;;;;;;;2.15;1.52;;;;;;;7.18;58.03;99052.00;3380435;29;20051;-71
2021/12/17 08:37:40;;;;;;;3.15;1.73;;;;;;;7.22;58.16;99057.72;3361190;29;20064;-69
2021/12/17 08:39:22;;;;;;;2.03;1.85;;;;;;;7.24;57.99;99061.00;3384246;29;20499;-69
2021/12/17 08:41:06;;;;;;;3.33;1.90;;;;;;;7.25;58.05;99054.69;3378511;29;20143;-70
2021/12/17 08:42:47;;;;;;;2.53;1.75;;;;;;;7.28;58.09;99061.44;3376786;29;20045;-71
2021/12/17 08:44:30;;;;;;;5.15;2.40;;;;;;;7.29;58.04;99053.31;3362984;29;20123;-70
2021/12/17 08:46:32;;;;;;;3.03;1.83;;;;;;;7.32;57.99;99052.94;3375202;29;20064;-70
2021/12/17 08:48:37;;;;;;;8.55;2.17;;;;;;;7.34;57.87;99058.88;3384078;29;20142;-71
2021/12/17 08:50:37;;;;;;;6.55;2.33;;;;;;;7.34;57.98;99056.22;3378934;29;20058;-69
2021/12/17 08:54:18;;;;;;;5.43;2.30;;;;;;;7.35;57.89;99052.53;3389026;29;20046;-71
2021/12/17 08:56:01;;;;;;;3.63;2.38;;;;;;;7.37;57.93;99061.13;3374431;29;20068;-70
2021/12/17 08:57:43;;;;;;;5.35;2.22;;;;;;;7.38;57.84;99061.94;3378291;29;20054;-71
2021/12/17 08:59:28;;;;;;;3.78;2.00;;;;;;;7.38;57.84;99065.44;3383801;29;20138;-70
2021/12/17 09:01:25;;;;;;;4.47;2.33;;;;;;;7.39;58.03;99063.59;3389760;29;20067;-72
2021/12/17 09:03:09;;;;;;;3.53;2.00;;;;;;;7.36;57.79;99054.22;3388626;29;20044;-70
2021/12/17 09:05:11;;;;;;;3.47;1.90;;;;;;;7.38;57.83;99059.28;3388245;29;20131;-70
2021/12/17 09:06:58;;;;;;;2.83;2.00;;;;;;;7.40;57.67;99055.44;3388744;29;20139;-71
2021/12/17 09:08:39;;;;;;;2.13;1.92;;;;;;;7.39;57.74;99067.06;3397521;29;20483;-70
2021/12/17 09:10:23;;;;;;;3.47;2.15;;;;;;;7.41;57.94;99058.94;3394704;29;20052;-72
2021/12/17 09:12:07;;;;;;;3.85;2.40;;;;;;;7.40;57.80;99057.28;3386166;29;20032;-71
2021/12/17 09:13:52;;;;;;;3.63;1.70;;;;;;;7.40;57.84;99063.41;3386423;29;20055;-73
2021/12/17 09:15:33;;;;;;;6.20;2.50;;;;;;;7.42;57.89;99064.03;3386200;29;20099;-71
2021/12/17 09:17:19;;;;;;;2.83;2.33;;;;;;;7.41;57.87;99059.75;3388458;29;20052;-73
2021/12/17 09:18:59;;;;;;;;;;;;;;;7.52;57.62;99061.06;3375393;29;20063;-72
2021/12/17 09:20:52;;;;;;;2.15;1.77;;;;;;;7.47;57.33;99060.00;3388093;29;19945;-73
2021/12/17 09:22:37;;;;;;;6.80;2.83;;;;;;;7.46;57.71;99058.34;3373442;29;20065;-71
2021/12/17 09:24:21;;;;;;;2.33;1.90;;;;;;;7.45;57.66;99062.03;3379725;29;20087;-70
2021/12/17 09:26:27;;;;;;;24.60;2.58;;;;;;;7.46;57.82;99067.16;3389012;29;20087;-71
2021/12/17 09:28:08;;;;;;;3.53;2.17;;;;;;;7.46;57.79;99058.34;3387504;29;20051;-71
2021/12/17 09:30:13;;;;;;;3.55;2.95;;;;;;;7.46;57.65;99061.84;3382087;29;20059;-71
2021/12/17 09:32:14;;;;;;;3.38;1.60;;;;;;;7.52;57.76;99070.88;3387990;29;20133;-72
2021/12/17 09:33:55;;;;;;;3.50;2.28;;;;;;;7.48;57.70;99069.59;3386701;29;20489;-71
2021/12/17 09:35:36;;;;;;;5.13;2.50;;;;;;;7.47;57.65;99074.09;3386230;29;20125;-73
2021/12/17 09:37:17;;;;;;;4.22;2.50;;;;;;;7.48;57.51;99072.25;3387493;29;20051;-70
2021/12/17 09:38:58;;;;;;;4.00;2.03;;;;;;;7.48;57.67;99073.06;3388368;29;20059;-70
2021/12/17 09:40:39;;;;;;;2.92;2.22;;;;;;;7.43;57.63;99068.34;3388138;29;20040;-71
2021/12/17 09:42:19;;;;;;;7.25;2.40;;;;;;;7.47;57.67;99060.81;3386117;29;20419;-70
2021/12/17 09:44:19;;;;;;;2.53;1.90;;;;;;;7.49;57.68;99073.91;3385489;29;20132;-72
2021/12/17 09:46:00;;;;;;;3.72;2.70;;;;;;;7.48;57.51;99072.25;3389102;29;20043;-71
2021/12/17 09:47:59;;;;;;;4.32;3.22;;;;;;;7.48;57.65;99083.66;3387435;29;20040;-72
2021/12/17 09:49:40;;;;;;;3.00;2.53;;;;;;;7.49;57.72;99079.22;3386685;29;20063;-71
2021/12/17 09:51:22;;;;;;;4.90;2.92;;;;;;;7.46;57.73;99080.41;3387129;29;20048;-71
2021/12/17 09:53:02;;;;;;;3.30;2.30;;;;;;;7.46;57.67;99091.00;3387232;29;20482;-70
2021/12/17 09:55:04;;;;;;;3.17;2.25;;;;;;;7.46;57.85;99090.16;3386288;29;20047;-73
2021/12/17 09:57:04;;;;;;;3.40;2.28;;;;;;;7.47;57.83;99083.88;3385127;29;20119;-71
2021/12/17 09:58:45;;;;;;;;;;;;;;;7.55;57.86;99083.75;3387334;29;20070;-70
2021/12/17 10:00:27;;;;;;;4.03;2.90;;;;;;;7.47;57.71;99087.34;3386373;29;19923;-70
2021/12/17 10:02:08;;;;;;;3.45;2.95;;;;;;;7.48;58.01;99088.16;3385521;29;20036;-70
2021/12/17 10:04:14;;;;;;;6.00;2.88;;;;;;;7.52;58.01;99084.13;3387706;29;20583;-70
2021/12/17 10:05:55;;;;;;;6.00;2.85;;;;;;;7.49;57.89;99085.31;3382759;29;20052;-70
2021/12/17 10:07:36;;;;;;;3.25;2.92;;;;;;;7.48;58.07;99085.50;3388208;29;20046;-71
2021/12/17 10:09:18;;;;;;;4.32;3.47;;;;;;;7.46;57.98;99079.56;3388165;29;20095;-70
2021/12/17 10:11:04;;;;;;;3.17;2.88;;;;;;;7.46;58.19;99090.16;3387806;29;20123;-70
2021/12/17 10:12:46;;;;;;;3.05;2.80;;;;;;;7.46;58.06;99088.34;3381638;29;20046;-72
2021/12/17 10:14:26;;;;;;;;;;;;;;;7.54;58.14;99084.75;3388715;29;20043;-69
2021/12/17 10:16:09;;;;;;;2.92;2.45;;;;;;;7.47;57.83;99076.72;3387992;29;20017;-71
2021/12/17 10:18:07;;;;;;;;;;;;;;;7.56;57.98;99074.75;3388651;29;20040;-71
2021/12/17 10:19:50;;;;;;;6.25;2.38;;;;;;;7.48;57.88;99082.84;3385630;29;20386;-72
2021/12/17 10:21:32;;;;;;;3.08;2.53;;;;;;;7.48;57.95;99080.19;3387446;29;20063;-71
2021/12/17 10:23:32;;;;;;;5.72;2.90;;;;;;;7.52;58.01;99094.72;3384776;29;20854;-70
2021/12/17 10:25:13;;;;;;;5.22;2.70;;;;;;;7.48;58.08;99082.84;3386588;29;20138;-70
2021/12/17 10:26:55;;;;;;;4.40;2.33;;;;;;;7.47;58.00;99076.72;3387159;29;20063;-72
2021/12/17 10:28:36;;;;;;;4.20;2.72;;;;;;;7.48;58.11;99082.84;3388855;29;20044;-70
2021/12/17 10:30:22;;;;;;;3.50;2.65;;;;;;;7.50;58.14;99088.78;3390407;29;20040;-76
2021/12/17 10:32:07;;;;;;;2.83;2.42;;;;;;;7.51;58.22;99090.41;3388038;29;20044;-74
2021/12/17 10:33:52;;;;;;;5.03;2.67;;;;;;;7.52;58.20;99089.44;3387152;29;20044;-72
2021/12/17 10:35:38;;;;;;;3.17;2.58;;;;;;;7.53;58.15;99093.72;3387312;29;20397;-72
2021/12/17 10:37:41;;;;;;;5.28;3.20;;;;;;;7.60;58.19;99091.94;3387968;29;20123;-73
2021/12/17 10:39:31;;;;;;;4.40;3.33;;;;;;;7.62;58.13;99096.06;3390229;29;20199;-72
2021/12/17 10:41:15;;;;;;;5.85;4.18;;;;;;;7.63;58.03;99088.91;3389993;29;20080;-73
2021/12/17 10:43:14;;;;;;;5.20;3.50;;;;;;;7.67;58.11;99092.84;3390338;29;20036;-73
2021/12/17 10:45:03;;;;;;;3.13;2.83;;;;;;;7.67;57.97;99090.19;3390614;29;20036;-72
2021/12/17 10:47:29;;;;;;;3.67;3.10;;;;;;;7.70;58.00;99099.59;3390808;29;20067;-74
2021/12/17 10:51:01;;;;;;;5.05;2.78;;;;;;;7.67;58.00;99108.75;3389921;29;20051;-72
2021/12/17 10:54:41;;;;;;;4.18;2.72;;;;;;;7.65;57.84;99116.06;3388745;29;20040;-74
2021/12/17 10:56:24;;;;;;;3.53;2.35;;;;;;;7.63;57.66;99110.13;3385463;29;20051;-73
2021/12/17 10:58:09;;;;;;;3.13;2.67;;;;;;;7.63;57.88;99116.25;3389607;29;20507;-72
2021/12/17 10:59:50;;;;;;;4.25;3.20;;;;;;;7.62;57.75;99113.81;3389474;29;20036;-75
2021/12/17 11:01:45;;;;;;;4.75;3.30;;;;;;;7.62;57.64;99116.44;3390111;29;20044;-73
2021/12/17 11:05:44;;;;;;;6.00;2.75;;;;;;;7.63;57.70;99120.72;3386864;29;20492;-73
2021/12/17 11:07:27;;;;;;;3.78;3.13;;;;;;;7.62;57.64;99111.97;3390874;29;20055;-75
2021/12/17 11:09:08;;;;;;;4.38;3.00;;;;;;;7.62;57.68;99122.56;3390915;29;20048;-72
2021/12/17 11:10:56;;;;;;;4.35;2.50;;;;;;;7.63;57.65;99128.69;3390783;29;20179;-74
2021/12/17 11:12:41;;;;;;;10.13;5.30;;;;;;;7.59;57.69;99122.09;3390801;29;20126;-73
2021/12/17 11:14:23;;;;;;;5.32;3.40;;;;;;;7.56;57.53;99112.72;3389360;29;20040;-74
2021/12/17 11:16:04;;;;;;;6.22;3.72;;;;;;;7.62;57.41;99122.56;3391003;29;20044;-74
2021/12/17 11:17:49;;;;;;;7.20;4.28;;;;;;;7.61;57.59;99125.41;3390442;29;20123;-74
2021/12/17 11:19:31;;;;;;;4.53;3.15;;;;;;;7.59;57.53;99127.41;3390634;29;20036;-73
2021/12/17 11:21:13;;;;;;;5.88;2.90;;;;;;;7.54;57.45;99119.22;3390662;29;20075;-74
2021/12/17 11:22:56;;;;;;;7.70;4.03;;;;;;;7.57;57.39;99126.81;3390419;29;20043;-75
2021/12/17 11:24:37;;;;;;;5.65;3.67;;;;;;;7.54;57.32;99127.19;3390523;29;20503;-74